Time;durP1;ratioP1;P1;durP2;ratioP2;P2;SDS_P1;SDS_P2;PMS_P1;PMS_P2;Temp;Humidity;BMP_temperature;BMP_pressure;BME280_temperature;BME280_humidity;BME280_pressure;Samples;Min_cycle;Max_cycle;Signal;HPM_P1;HPM_P2
2021/08/21 00:00:46;;;;;;;6.07;5.50;;;16.80;99.90;;;;;;5105022;28;20795;-41
2021/08/21 00:03:12;;;;;;;5.97;5.37;;;16.80;99.90;;;;;;5126366;28;20183;-40
2021/08/21 00:05:38;;;;;;;6.07;5.37;;;16.70;99.90;;;;;;5126189;28;20419;-39
2021/08/21 00:08:05;;;;;;;6.73;6.10;;;16.50;99.90;;;;;;5126299;28;20436;-40
2021/08/21 00:10:33;;;;;;;5.83;5.33;;;16.40;99.90;;;;;;5125335;28;20199;-39
2021/08/21 00:12:58;;;;;;;6.03;5.43;;;16.30;99.90;;;;;;5119483;28;20842;-42
2021/08/21 00:15:24;;;;;;;5.47;4.97;;;16.30;99.90;;;;;;5122791;28;20421;-39
2021/08/21 00:17:50;;;;;;;6.00;5.50;;;16.30;99.90;;;;;;5126002;28;20231;-40
2021/08/21 00:20:16;;;;;;;6.13;5.53;;;16.30;99.90;;;;;;5125581;28;20183;-43
2021/08/21 00:22:42;;;;;;;6.43;5.83;;;16.30;99.90;;;;;;5126339;28;20825;-39
2021/08/21 00:25:09;;;;;;;5.70;5.10;;;16.20;99.90;;;;;;5126024;28;20194;-40
2021/08/21 00:27:34;;;;;;;5.97;5.47;;;16.10;99.90;;;;;;5121511;28;20324;-40
2021/08/21 00:30:00;;;;;;;6.17;5.57;;;16.10;99.90;;;;;;5122813;28;20819;-40
2021/08/21 00:32:26;;;;;;;8.07;5.50;;;16.10;99.90;;;;;;5121693;28;20215;-45
2021/08/21 00:34:51;;;;;;;5.87;5.10;;;16.00;99.90;;;;;;5126200;28;20236;-40
2021/08/21 00:37:17;;;;;;;7.77;5.53;;;15.90;99.90;;;;;;5125982;28;20183;-39
2021/08/21 00:39:43;;;;;;;6.93;5.07;;;15.90;99.90;;;;;;5125053;28;20176;-39
2021/08/21 00:42:09;;;;;;;6.67;6.07;;;15.90;99.90;;;;;;5107396;28;20198;-42
2021/08/21 00:44:36;;;;;;;7.00;5.73;;;15.80;99.90;;;;;;5116126;27;20183;-39
2021/08/21 00:47:06;;;;;;;7.10;5.93;;;15.70;99.90;;;;;;5128293;27;20421;-39
2021/08/21 00:49:33;;;;;;;6.80;6.20;;;15.70;99.90;;;;;;5129234;27;20417;-40
2021/08/21 00:52:04;;;;;;;5.97;5.37;;;15.70;99.90;;;;;;5129449;27;20864;-40
2021/08/21 00:54:31;;;;;;;7.37;6.67;;;15.70;99.90;;;;;;5116525;27;20557;-40
2021/08/21 00:56:59;;;;;;;6.80;5.50;;;15.60;99.90;;;;;;5129266;27;20999;-40
2021/08/21 00:59:25;;;;;;;8.00;6.63;;;15.60;99.90;;;;;;5118270;27;20420;-39
2021/08/21 01:01:51;;;;;;;7.03;6.30;;;15.60;99.90;;;;;;5126708;27;20421;-40
2021/08/21 01:04:18;;;;;;;6.47;5.87;;;15.60;99.90;;;;;;5108909;28;20278;-40
2021/08/21 01:06:44;;;;;;;7.80;6.40;;;15.60;99.90;;;;;;5115961;27;20425;-41
2021/08/21 01:09:10;;;;;;;6.23;5.73;;;15.70;99.90;;;;;;5128661;27;20432;-39
2021/08/21 01:11:35;;;;;;;7.87;6.40;;;15.60;99.90;;;;;;5128962;27;20213;-39
2021/08/21 01:14:01;;;;;;;6.53;5.93;;;15.60;99.90;;;;;;5099019;28;20693;-39
2021/08/21 01:16:27;;;;;;;7.10;6.37;;;15.60;99.90;;;;;;5126414;27;20183;-39
2021/08/21 01:18:53;;;;;;;9.47;8.53;;;15.60;99.90;;;;;;5126591;27;20232;-39
2021/08/21 01:21:20;;;;;;;7.87;6.37;;;15.70;99.90;;;;;;5129195;27;20433;-39
2021/08/21 01:23:46;;;;;;;8.03;7.10;;;15.70;99.90;;;;;;5129045;27;20425;-39
2021/08/21 01:26:12;;;;;;;6.90;6.17;;;15.70;99.90;;;;;;5129006;27;20413;-39
2021/08/21 01:28:39;;;;;;;8.13;7.43;;;15.70;99.90;;;;;;5121616;27;20441;-39
2021/08/21 01:31:06;;;;;;;9.70;6.90;;;15.80;99.90;;;;;;5122627;27;20512;-39
2021/08/21 01:33:37;;;;;;;7.50;6.80;;;15.80;99.90;;;;;;5126393;27;20808;-41
2021/08/21 01:36:03;;;;;;;7.40;6.70;;;15.80;99.90;;;;;;5128671;27;20419;-39
2021/08/21 01:38:29;;;;;;;7.47;6.70;;;15.80;99.90;;;;;;5128716;27;20403;-39
2021/08/21 01:40:55;;;;;;;8.13;7.33;;;15.80;99.90;;;;;;5127890;27;20651;-41
2021/08/21 01:43:22;;;;;;;7.37;6.63;;;15.70;99.90;;;;;;5121605;27;20180;-39
2021/08/21 01:45:48;;;;;;;6.40;5.80;;;15.70;99.90;;;;;;5126659;27;20421;-41
2021/08/21 01:48:15;;;;;;;7.50;6.30;;;15.60;99.90;;;;;;5128478;27;20417;-40
2021/08/21 01:50:41;;;;;;;7.27;6.60;;;15.50;99.90;;;;;;5127398;27;20798;-39
2021/08/21 01:53:14;;;;;;;9.03;6.93;;;15.40;99.90;;;;;;5128694;27;20428;-40
2021/08/21 01:55:40;;;;;;;9.40;6.40;;;15.40;99.90;;;;;;5127785;27;20203;-39
2021/08/21 01:58:06;;;;;;;11.23;7.67;;;15.40;99.90;;;;;;5124471;27;20863;-40
2021/08/21 02:00:32;;;;;;;8.07;7.27;;;15.50;99.90;;;;;;5119055;27;20852;-39
2021/08/21 02:02:58;;;;;;;8.10;7.30;;;15.40;99.90;;;;;;5126335;27;20192;-40
2021/08/21 02:05:24;;;;;;;7.93;6.80;;;15.30;99.90;;;;;;5128209;27;20539;-39
2021/08/21 02:07:51;;;;;;;8.03;6.10;;;15.20;99.90;;;;;;5128024;27;20481;-40
2021/08/21 02:10:20;;;;;;;7.33;6.63;;;15.30;99.90;;;;;;5127069;27;20448;-41
2021/08/21 02:12:46;;;;;;;7.90;7.20;;;15.40;99.90;;;;;;5128126;27;20832;-40
2021/08/21 02:15:15;;;;;;;7.30;6.60;;;15.30;99.90;;;;;;5119864;27;20469;-39
2021/08/21 02:17:41;;;;;;;7.73;6.93;;;15.30;99.90;;;;;;5121850;27;20424;-39
2021/08/21 02:20:12;;;;;;;7.07;6.40;;;15.20;99.90;;;;;;5126970;27;20417;-39
2021/08/21 02:22:42;;;;;;;7.40;5.70;;;15.10;99.90;;;;;;5109709;27;20227;-39
2021/08/21 02:25:10;;;;;;;8.50;6.57;;;15.00;99.90;;;;;;5127629;27;20432;-40
2021/08/21 02:27:38;;;;;;;6.97;6.27;;;15.00;99.90;;;;;;5127833;27;20835;-40
2021/08/21 02:30:06;;;;;;;9.17;8.00;;;14.90;99.90;;;;;;5114404;27;20445;-39
2021/08/21 02:32:32;;;;;;;7.10;6.40;;;15.00;99.90;;;;;;5127499;27;20551;-39
2021/08/21 02:34:58;;;;;;;8.53;7.67;;;15.10;99.90;;;;;;5127413;27;20778;-40
2021/08/21 02:37:23;;;;;;;8.03;7.33;;;15.10;99.90;;;;;;5127380;27;20417;-40
2021/08/21 02:39:49;;;;;;;8.40;6.93;;;15.10;99.90;;;;;;5126841;27;20657;-40
2021/08/21 02:42:15;;;;;;;7.13;6.43;;;15.10;99.90;;;;;;5109150;27;20219;-40
2021/08/21 02:44:40;;;;;;;9.23;8.30;;;15.10;99.90;;;;;;5119774;27;20196;-39
2021/08/21 02:47:06;;;;;;;9.63;8.47;;;15.20;99.90;;;;;;5127079;27;20456;-39
2021/08/21 02:49:33;;;;;;;8.20;7.40;;;15.30;99.90;;;;;;5126586;27;20199;-40
2021/08/21 02:51:59;;;;;;;8.70;7.80;;;15.40;99.90;;;;;;5127018;27;20215;-42
2021/08/21 02:54:25;;;;;;;8.90;7.87;;;15.30;99.90;;;;;;5113701;27;21065;-40
2021/08/21 02:56:51;;;;;;;8.60;7.07;;;15.30;99.90;;;;;;5108521;27;20416;-39
2021/08/21 02:59:16;;;;;;;9.13;8.13;;;15.30;99.90;;;;;;5118909;27;20221;-39
2021/08/21 03:01:42;;;;;;;12.83;8.90;;;15.30;99.90;;;;;;5124388;27;20699;-40
2021/08/21 03:04:08;;;;;;;9.60;8.57;;;15.40;99.90;;;;;;5121137;27;20730;-40
2021/08/21 03:06:33;;;;;;;10.47;7.83;;;15.50;99.90;;;;;;5108074;27;20253;-40
2021/08/21 03:08:59;;;;;;;11.07;8.60;;;15.50;99.90;;;;;;5125694;27;20214;-40
2021/08/21 03:11:25;;;;;;;10.27;7.20;;;15.60;99.90;;;;;;5127151;27;20584;-39
2021/08/21 03:13:50;;;;;;;7.90;7.10;;;15.40;99.90;;;;;;5119945;27;20685;-41
2021/08/21 03:16:16;;;;;;;9.20;7.90;;;15.20;99.90;;;;;;5122846;27;20191;-39
2021/08/21 03:18:42;;;;;;;10.70;7.60;;;15.10;99.90;;;;;;5126245;27;20179;-40
2021/08/21 03:21:07;;;;;;;8.00;7.20;;;15.10;99.90;;;;;;5126734;27;20182;-39
2021/08/21 03:23:33;;;;;;;8.50;6.77;;;15.10;99.90;;;;;;5126726;27;20259;-41
2021/08/21 03:25:59;;;;;;;9.30;8.40;;;15.00;99.90;;;;;;5126642;27;20218;-39
2021/08/21 03:28:24;;;;;;;8.47;7.67;;;15.00;99.90;;;;;;5125981;27;20238;-39
2021/08/21 03:30:50;;;;;;;8.07;7.30;;;15.10;99.90;;;;;;5110920;27;20290;-40
2021/08/21 03:33:16;;;;;;;11.87;8.80;;;15.10;99.90;;;;;;5125271;28;20186;-39
2021/08/21 03:35:43;;;;;;;10.70;8.60;;;15.20;99.90;;;;;;5126464;28;20187;-40
2021/08/21 03:38:09;;;;;;;10.07;9.07;;;15.30;99.90;;;;;;5126358;28;20246;-39
2021/08/21 03:40:35;;;;;;;8.97;7.70;;;15.30;99.90;;;;;;5125716;28;20524;-40
2021/08/21 03:43:00;;;;;;;10.20;8.30;;;15.40;99.90;;;;;;5126460;28;20234;-39
2021/08/21 03:45:26;;;;;;;11.60;8.73;;;15.40;99.90;;;;;;5112271;28;20197;-39
2021/08/21 03:47:52;;;;;;;9.87;8.27;;;15.40;99.90;;;;;;5126462;28;20182;-39
2021/08/21 03:50:18;;;;;;;9.40;8.50;;;15.40;99.90;;;;;;5125418;28;20460;-40
2021/08/21 03:52:43;;;;;;;11.30;10.10;;;15.30;99.90;;;;;;5126404;28;20223;-39
2021/08/21 03:55:09;;;;;;;11.47;10.27;;;15.30;99.90;;;;;;5126432;28;20600;-40
2021/08/21 03:57:35;;;;;;;13.07;10.43;;;15.30;99.90;;;;;;5126686;28;20838;-38
2021/08/21 04:00:03;;;;;;;15.57;11.23;;;15.40;99.90;;;;;;5114794;28;20606;-39
2021/08/21 04:02:28;;;;;;;18.60;11.07;;;15.40;99.90;;;;;;5124220;28;20428;-41
2021/08/21 04:04:54;;;;;;;14.90;11.90;;;15.30;99.90;;;;;;5125891;28;20811;-40
2021/08/21 04:07:20;;;;;;;11.83;10.30;;;15.30;99.90;;;;;;5126123;28;20179;-41
2021/08/21 04:09:45;;;;;;;14.87;10.27;;;15.30;99.90;;;;;;5125354;28;20222;-40
2021/08/21 04:12:14;;;;;;;13.27;11.00;;;15.30;99.90;;;;;;5126604;28;20692;-41
2021/08/21 04:14:39;;;;;;;12.57;11.13;;;15.40;99.90;;;;;;5112731;28;20180;-39
2021/08/21 04:17:05;;;;;;;15.03;11.27;;;15.40;99.90;;;;;;5121022;28;20413;-40
2021/08/21 04:19:31;;;;;;;13.67;10.80;;;15.50;99.90;;;;;;5094264;28;20207;-39
2021/08/21 04:21:56;;;;;;;11.23;9.97;;;15.50;99.90;;;;;;5109375;28;20187;-39
2021/08/21 04:24:22;;;;;;;11.60;9.57;;;15.40;99.90;;;;;;5128208;27;20191;-41
2021/08/21 04:26:48;;;;;;;13.90;11.20;;;15.30;99.90;;;;;;5129843;27;20187;-41
2021/08/21 04:29:13;;;;;;;12.20;10.97;;;15.30;99.90;;;;;;5125163;27;20218;-39
2021/08/21 04:31:39;;;;;;;12.80;11.40;;;15.30;99.90;;;;;;5124468;27;20444;-39
2021/08/21 04:34:05;;;;;;;11.07;9.57;;;15.40;99.90;;;;;;5125405;27;20199;-40
2021/08/21 04:36:31;;;;;;;9.63;8.70;;;15.40;99.90;;;;;;5130515;27;20419;-39
2021/08/21 04:38:57;;;;;;;13.10;9.73;;;15.40;99.90;;;;;;5131009;27;20269;-38
2021/08/21 04:41:22;;;;;;;11.27;10.17;;;15.40;99.90;;;;;;5131457;27;20217;-39
2021/08/21 04:43:48;;;;;;;11.43;10.23;;;15.50;99.90;;;;;;5129742;27;20199;-39
2021/08/21 04:46:13;;;;;;;10.53;9.40;;;15.40;99.90;;;;;;5117851;27;20191;-39
2021/08/21 04:48:39;;;;;;;10.90;9.57;;;15.40;99.90;;;;;;5129314;27;20261;-40
2021/08/21 04:51:05;;;;;;;15.60;10.77;;;15.30;99.90;;;;;;5129226;27;20211;-40
2021/08/21 04:53:31;;;;;;;12.10;10.43;;;15.20;99.90;;;;;;5129794;27;20183;-39
2021/08/21 04:55:57;;;;;;;13.97;10.43;;;15.20;99.90;;;;;;5129551;27;20226;-39
2021/08/21 04:58:22;;;;;;;14.10;10.23;;;15.30;99.90;;;;;;5129350;27;20416;-39
2021/08/21 05:00:48;;;;;;;19.10;11.60;;;15.30;99.90;;;;;;5117083;27;20807;-41
2021/08/21 05:03:14;;;;;;;12.00;10.77;;;15.40;99.90;;;;;;5129102;27;20243;-40
2021/08/21 05:05:39;;;;;;;11.13;10.00;;;15.40;99.90;;;;;;5093795;27;20251;-41
2021/08/21 05:08:05;;;;;;;13.20;11.20;;;15.50;99.90;;;;;;5129154;27;20234;-40
2021/08/21 05:10:31;;;;;;;13.60;10.97;;;15.50;99.90;;;;;;5104274;28;20199;-40
2021/08/21 05:12:57;;;;;;;13.27;11.33;;;15.70;99.90;;;;;;5096857;27;20929;-40
2021/08/21 05:15:22;;;;;;;12.53;10.83;;;15.70;99.90;;;;;;5120949;27;20689;-40
2021/08/21 05:17:50;;;;;;;12.70;10.47;;;15.80;99.90;;;;;;5128769;27;20568;-39
2021/08/21 05:20:26;;;;;;;12.13;10.83;;;15.80;99.90;;;;;;5123774;27;20576;-39
2021/08/21 05:25:31;;;;;;;12.97;10.33;;;15.80;99.90;;;;;;5129178;27;20456;-39
2021/08/21 05:27:58;;;;;;;12.47;11.20;;;15.90;99.90;;;;;;5129068;27;20511;-40
2021/08/21 05:30:27;;;;;;;13.37;11.60;;;15.90;99.90;;;;;;5118565;27;20430;-39
2021/08/21 05:32:54;;;;;;;15.90;12.60;;;16.00;99.90;;;;;;5124743;27;20768;-39
2021/08/21 05:35:20;;;;;;;12.23;10.87;;;16.00;99.90;;;;;;5128649;27;20408;-41
2021/08/21 05:37:46;;;;;;;13.10;11.00;;;16.00;99.90;;;;;;5128590;27;20444;-39
2021/08/21 05:40:12;;;;;;;12.90;10.43;;;16.10;99.90;;;;;;5127805;27;20229;-39
2021/08/21 05:42:37;;;;;;;16.23;11.80;;;16.20;99.90;;;;;;5128321;27;20207;-39
2021/08/21 05:45:03;;;;;;;12.77;11.27;;;16.20;99.90;;;;;;5123312;27;20429;-39
2021/08/21 05:47:29;;;;;;;12.77;11.53;;;16.20;99.90;;;;;;5119681;27;20602;-39
2021/08/21 05:50:00;;;;;;;13.00;11.70;;;16.20;99.90;;;;;;5127513;27;20413;-39
2021/08/21 05:52:26;;;;;;;13.60;10.90;;;16.30;99.90;;;;;;5128498;27;20309;-40
2021/08/21 05:54:52;;;;;;;12.77;10.70;;;16.30;99.90;;;;;;5110030;27;20516;-39
2021/08/21 05:57:17;;;;;;;11.70;10.50;;;16.40;99.90;;;;;;5128141;27;20501;-41
2021/08/21 05:59:43;;;;;;;12.63;10.57;;;16.50;99.90;;;;;;5126642;27;20194;-39
2021/08/21 06:02:09;;;;;;;15.47;11.50;;;16.50;99.90;;;;;;5115637;27;20227;-39
2021/08/21 06:04:35;;;;;;;13.70;11.17;;;16.50;99.90;;;;;;5123546;27;20444;-39
2021/08/21 06:07:01;;;;;;;12.63;10.70;;;16.50;99.90;;;;;;5128139;27;20208;-39
2021/08/21 06:09:26;;;;;;;11.60;10.40;;;16.50;99.90;;;;;;5127328;27;20207;-39
2021/08/21 06:11:52;;;;;;;15.43;11.13;;;16.50;99.90;;;;;;5127745;27;20207;-39
2021/08/21 06:14:18;;;;;;;12.20;9.80;;;16.60;99.90;;;;;;5118056;27;20225;-39
2021/08/21 06:16:44;;;;;;;13.67;11.50;;;16.60;99.90;;;;;;5113328;27;20420;-41
2021/08/21 06:19:10;;;;;;;13.23;11.17;;;16.60;99.90;;;;;;5126388;27;20425;-39
2021/08/21 06:21:35;;;;;;;13.17;11.73;;;16.70;99.90;;;;;;5126403;27;20190;-39
2021/08/21 06:24:01;;;;;;;11.70;10.50;;;16.70;99.90;;;;;;5124602;27;20657;-41
2021/08/21 06:26:28;;;;;;;11.63;10.43;;;16.70;99.90;;;;;;5108681;27;20190;-41
2021/08/21 06:28:54;;;;;;;12.67;10.97;;;16.70;99.90;;;;;;5117190;27;20179;-39
2021/08/21 06:31:19;;;;;;;13.80;11.23;;;16.80;99.90;;;;;;5106555;27;20827;-39
2021/08/21 06:33:45;;;;;;;12.90;11.00;;;16.80;99.90;;;;;;5127548;27;20417;-39
2021/08/21 06:36:11;;;;;;;13.10;11.80;;;16.90;99.90;;;;;;5127306;27;20203;-39
2021/08/21 06:38:36;;;;;;;12.33;10.93;;;16.90;99.90;;;;;;5127423;27;20175;-39
2021/08/21 06:41:02;;;;;;;13.23;11.83;;;17.00;99.90;;;;;;5126836;27;20183;-39
2021/08/21 06:43:28;;;;;;;11.67;10.47;;;17.00;99.90;;;;;;5127232;27;20191;-40
2021/08/21 06:45:54;;;;;;;12.10;10.43;;;17.00;99.90;;;;;;5125461;27;20208;-39
2021/08/21 06:48:19;;;;;;;11.27;10.13;;;17.10;99.90;;;;;;5105890;27;20567;-39
2021/08/21 06:50:45;;;;;;;11.57;10.47;;;17.10;99.90;;;;;;5122630;27;20483;-39
2021/08/21 06:53:11;;;;;;;12.60;10.80;;;17.10;99.90;;;;;;5127106;27;20554;-40
2021/08/21 06:55:36;;;;;;;12.90;10.60;;;17.20;99.90;;;;;;5125490;27;20680;-39
2021/08/21 06:58:02;;;;;;;13.10;11.07;;;17.20;99.90;;;;;;5126894;27;20191;-40
2021/08/21 07:00:28;;;;;;;11.23;9.13;;;17.30;99.90;;;;;;5109958;27;20191;-40
2021/08/21 07:02:53;;;;;;;12.57;9.80;;;17.30;99.90;;;;;;5120099;27;20183;-39
2021/08/21 07:05:19;;;;;;;12.30;10.70;;;17.30;99.90;;;;;;5119302;27;20661;-39
2021/08/21 07:07:45;;;;;;;12.80;11.47;;;17.40;99.90;;;;;;5108230;27;20211;-41
2021/08/21 07:10:11;;;;;;;13.27;11.67;;;17.40;99.90;;;;;;5123898;27;20911;-40
2021/08/21 07:12:36;;;;;;;12.40;11.20;;;17.50;99.90;;;;;;5120616;27;20302;-40
2021/08/21 07:15:03;;;;;;;13.30;11.87;;;17.50;99.90;;;;;;5113752;27;20636;-41
2021/08/21 07:17:29;;;;;;;12.77;11.53;;;17.50;99.90;;;;;;5108050;27;20513;-39
2021/08/21 07:19:55;;;;;;;12.40;11.20;;;17.60;99.90;;;;;;5125614;27;20425;-40
2021/08/21 07:22:20;;;;;;;12.97;11.00;;;17.60;99.90;;;;;;5107913;27;20201;-39
2021/08/21 07:24:46;;;;;;;12.00;10.70;;;17.70;99.90;;;;;;5125941;27;20216;-40
2021/08/21 07:27:12;;;;;;;16.33;11.43;;;17.70;99.90;;;;;;5126757;27;20642;-40
2021/08/21 07:29:37;;;;;;;12.90;10.23;;;17.70;99.90;;;;;;5125257;27;20668;-40
2021/08/21 07:32:03;;;;;;;12.67;11.37;;;17.80;99.90;;;;;;5119848;27;20672;-39
2021/08/21 07:34:30;;;;;;;13.63;11.50;;;17.80;99.90;;;;;;5123749;28;20852;-39
2021/08/21 07:36:56;;;;;;;11.13;10.03;;;17.90;99.90;;;;;;5124572;28;20895;-41
2021/08/21 07:39:22;;;;;;;12.13;10.60;;;18.00;99.90;;;;;;5106518;28;20492;-39
2021/08/21 07:41:47;;;;;;;12.37;11.10;;;18.10;99.90;;;;;;5126373;28;20247;-40
2021/08/21 07:44:13;;;;;;;11.93;10.60;;;18.20;99.90;;;;;;5126611;28;20202;-39
2021/08/21 07:46:39;;;;;;;10.90;9.67;;;18.30;99.90;;;;;;5118322;28;20187;-41
2021/08/21 07:49:05;;;;;;;11.57;10.43;;;18.30;99.90;;;;;;5125762;28;20259;-40
2021/08/21 07:51:31;;;;;;;12.30;9.80;;;18.40;99.90;;;;;;5126384;28;20460;-39
2021/08/21 07:53:56;;;;;;;11.57;10.33;;;18.50;99.90;;;;;;5108093;28;20270;-39
2021/08/21 07:56:22;;;;;;;12.37;10.47;;;18.60;99.90;;;;;;5110864;27;20190;-40
2021/08/21 07:58:48;;;;;;;13.20;10.67;;;18.60;99.90;;;;;;5130631;27;20199;-40
2021/08/21 08:01:13;;;;;;;12.53;10.80;;;18.60;99.90;;;;;;5122189;27;20580;-39
2021/08/21 08:03:39;;;;;;;12.63;11.40;;;18.70;99.90;;;;;;5128380;27;20234;-40
2021/08/21 08:06:05;;;;;;;11.87;10.20;;;18.80;99.90;;;;;;5120347;27;20595;-41
2021/08/21 08:08:30;;;;;;;13.97;10.17;;;18.90;99.90;;;;;;5109850;28;20227;-39
2021/08/21 08:10:56;;;;;;;15.77;11.07;;;18.90;99.90;;;;;;5107065;27;20275;-40
2021/08/21 08:13:22;;;;;;;12.90;11.60;;;19.00;99.90;;;;;;5127672;27;20206;-43
2021/08/21 08:15:49;;;;;;;10.87;9.60;;;19.10;99.90;;;;;;5109255;28;20223;-40
2021/08/21 08:18:14;;;;;;;11.00;9.83;;;19.10;99.90;;;;;;5101704;27;20191;-42
2021/08/21 08:20:40;;;;;;;10.20;9.20;;;19.20;99.90;;;;;;5126635;27;20474;-39
2021/08/21 08:23:06;;;;;;;11.30;9.70;;;19.30;99.90;;;;;;5130375;27;20180;-41
2021/08/21 08:25:32;;;;;;;13.43;11.00;;;19.40;99.90;;;;;;5130203;27;20186;-40
2021/08/21 08:27:57;;;;;;;11.20;9.20;;;19.50;99.90;;;;;;5129839;27;20238;-41
2021/08/21 08:30:23;;;;;;;11.73;9.47;;;19.70;99.90;;;;;;5129351;27;20521;-43
2021/08/21 08:32:49;;;;;;;14.80;9.67;;;19.70;99.90;;;;;;5118392;27;20207;-40
2021/08/21 08:35:15;;;;;;;15.03;11.43;;;19.80;99.90;;;;;;5129887;27;20194;-43
2021/08/21 08:37:41;;;;;;;12.97;9.90;;;19.90;99.90;;;;;;5129649;27;20202;-40
2021/08/21 08:40:09;;;;;;;12.90;11.20;;;20.00;99.90;;;;;;5128970;27;20187;-41
2021/08/21 08:42:39;;;;;;;14.10;10.73;;;20.00;99.90;;;;;;5129630;27;20974;-40
2021/08/21 08:45:05;;;;;;;11.60;10.37;;;20.00;99.90;;;;;;5129948;27;20424;-41
2021/08/21 08:47:34;;;;;;;12.13;9.67;;;20.10;99.90;;;;;;5118169;27;20447;-40
2021/08/21 08:50:03;;;;;;;12.30;10.57;;;20.10;99.90;;;;;;5128980;27;20651;-40
2021/08/21 08:52:30;;;;;;;10.30;8.47;;;20.10;99.90;;;;;;5128802;27;20463;-42
2021/08/21 08:54:56;;;;;;;10.90;9.40;;;20.20;99.90;;;;;;5129729;27;20419;-40
2021/08/21 08:57:37;;;;;;;7.87;7.07;;;20.20;99.90;;;;;;5129393;27;20421;-44
2021/08/21 09:00:09;;;;;;;10.20;9.20;;;20.30;99.90;;;;;;5129124;27;20473;-40
2021/08/21 09:02:49;;;;;;;8.47;7.57;;;20.30;99.90;;;;;;5120521;27;20512;-40
2021/08/21 09:05:17;;;;;;;11.20;10.10;;;20.40;99.90;;;;;;5126798;27;20768;-40
2021/08/21 09:08:18;;;;;;;11.60;8.83;;;20.40;99.90;;;;;;5117047;27;20420;-40
2021/08/21 09:10:45;;;;;;;9.00;8.03;;;20.40;99.90;;;;;;5129071;27;20419;-40
2021/08/21 09:13:17;;;;;;;9.87;8.83;;;20.60;99.90;;;;;;5128069;27;20425;-41
2021/08/21 09:15:48;;;;;;;9.73;8.40;;;20.60;99.90;;;;;;5109056;28;20512;-39
2021/08/21 09:18:16;;;;;;;8.10;6.73;;;20.60;99.90;;;;;;5116126;27;20509;-40
2021/08/21 09:20:48;;;;;;;7.97;7.17;;;20.70;99.90;;;;;;5102847;27;20495;-40
2021/08/21 09:23:18;;;;;;;9.03;7.90;;;20.80;99.90;;;;;;5110616;27;21001;-40
2021/08/21 09:25:45;;;;;;;7.73;6.37;;;20.90;99.90;;;;;;5128465;27;20449;-39
2021/08/21 09:28:18;;;;;;;9.00;7.57;;;20.90;99.90;;;;;;5129144;27;20831;-41
2021/08/21 09:30:44;;;;;;;8.27;6.63;;;21.00;99.90;;;;;;5128068;27;20539;-40
2021/08/21 09:33:09;;;;;;;7.57;6.73;;;21.10;99.90;;;;;;5120082;27;20800;-40
2021/08/21 09:35:35;;;;;;;8.00;7.20;;;21.10;99.90;;;;;;5128409;27;20583;-41
2021/08/21 09:38:02;;;;;;;7.77;7.00;;;21.10;99.90;;;;;;5128899;27;20650;-40
2021/08/21 09:40:34;;;;;;;7.60;6.90;;;21.20;99.90;;;;;;5127389;27;20781;-40
2021/08/21 09:43:01;;;;;;;7.07;5.30;;;21.20;99.90;;;;;;5128603;27;20439;-40
2021/08/21 09:45:27;;;;;;;7.03;6.37;;;21.20;99.90;;;;;;5128314;27;20451;-42
2021/08/21 09:48:00;;;;;;;9.17;5.87;;;21.30;99.90;;;;;;5116865;27;20482;-43
2021/08/21 09:50:31;;;;;;;7.07;5.33;;;21.50;99.90;;;;;;5124471;27;20438;-41
2021/08/21 09:53:02;;;;;;;6.20;5.60;;;21.60;99.90;;;;;;5127666;27;20472;-43
2021/08/21 09:55:29;;;;;;;6.50;5.57;;;21.60;99.90;;;;;;5128210;27;20568;-40
2021/08/21 09:58:05;;;;;;;7.13;6.43;;;21.60;99.90;;;;;;5110479;27;20424;-41
2021/08/21 10:00:33;;;;;;;6.83;5.43;;;21.70;99.90;;;;;;5126050;27;20425;-42
2021/08/21 10:02:59;;;;;;;5.40;4.90;;;21.80;99.90;;;;;;5117082;27;20429;-43
2021/08/21 10:05:26;;;;;;;6.27;5.70;;;22.00;99.90;;;;;;5124565;27;20425;-42
2021/08/21 10:08:06;;;;;;;4.80;4.40;;;22.10;99.90;;;;;;5128506;27;20449;-40
2021/08/21 10:10:35;;;;;;;5.67;5.10;;;22.10;99.90;;;;;;5127173;27;20530;-41
2021/08/21 10:13:08;;;;;;;5.33;4.83;;;22.10;99.90;;;;;;5127966;27;20424;-44
2021/08/21 10:15:37;;;;;;;7.00;5.77;;;22.00;99.90;;;;;;5114839;27;20705;-40
2021/08/21 10:18:04;;;;;;;4.23;3.60;;;22.00;99.90;;;;;;5101301;27;21066;-41
2021/08/21 10:20:30;;;;;;;4.20;3.90;;;22.00;99.90;;;;;;5127227;27;20413;-41
2021/08/21 10:22:55;;;;;;;4.47;4.07;;;22.10;99.90;;;;;;5127431;27;20434;-42
2021/08/21 10:25:25;;;;;;;4.10;3.80;;;22.00;99.90;;;;;;5127867;27;20222;-40
2021/08/21 10:27:59;;;;;;;4.33;3.93;;;22.00;99.90;;;;;;5127653;27;20183;-42
2021/08/21 10:30:44;;;;;;;5.07;4.03;;;22.10;99.90;;;;;;5108922;27;20469;-41
2021/08/21 10:33:11;;;;;;;2.93;2.73;;;22.00;99.90;;;;;;5119089;27;20808;-41
2021/08/21 10:35:56;;;;;;;3.93;3.53;;;22.10;99.90;;;;;;5126258;27;20412;-41
2021/08/21 10:38:33;;;;;;;3.77;3.47;;;22.30;99.90;;;;;;5126890;27;20408;-41
2021/08/21 10:41:01;;;;;;;4.00;3.60;;;22.40;99.90;;;;;;5126615;27;20413;-41
2021/08/21 10:43:41;;;;;;;4.20;3.80;;;22.40;99.90;;;;;;5127638;27;20416;-41
2021/08/21 10:46:07;;;;;;;3.23;3.03;;;22.60;99.90;;;;;;5127630;27;20408;-40
2021/08/21 10:48:36;;;;;;;3.50;3.20;;;22.60;99.90;;;;;;5115449;27;20425;-43
2021/08/21 10:51:04;;;;;;;3.80;3.40;;;22.70;99.90;;;;;;5121534;27;20853;-42
2021/08/21 10:53:31;;;;;;;3.30;3.00;;;22.80;99.90;;;;;;5126730;27;20421;-43
2021/08/21 10:55:59;;;;;;;2.87;2.60;;;22.90;99.90;;;;;;5127087;27;20442;-42
2021/08/21 10:58:26;;;;;;;3.77;2.93;;;22.90;99.90;;;;;;5127037;27;20415;-41
2021/08/21 11:00:56;;;;;;;3.40;3.00;;;22.90;99.90;;;;;;5124819;27;20416;-40
2021/08/21 11:03:24;;;;;;;2.83;2.63;;;22.90;99.90;;;;;;5115080;27;20433;-42
2021/08/21 11:06:07;;;;;;;3.57;2.90;;;22.90;99.90;;;;;;5121028;27;20818;-46
2021/08/21 11:08:36;;;;;;;2.77;2.57;;;22.80;99.90;;;;;;5126795;27;20437;-42
2021/08/21 11:11:13;;;;;;;4.47;2.93;;;22.70;99.90;;;;;;5126807;27;20836;-41
2021/08/21 11:14:00;;;;;;;2.97;2.73;;;22.70;99.90;;;;;;5126937;27;20412;-40
2021/08/21 11:16:55;;;;;;;2.77;2.57;;;22.60;99.90;;;;;;5127075;27;20421;-42
2021/08/21 11:19:40;;;;;;;3.33;3.03;;;22.50;99.90;;;;;;5116720;27;20463;-42
2021/08/21 11:22:13;;;;;;;3.33;3.03;;;22.60;99.90;;;;;;5121116;27;20458;-40
2021/08/21 11:24:52;;;;;;;2.60;2.40;;;22.70;99.90;;;;;;5126372;27;20421;-40
2021/08/21 11:27:30;;;;;;;3.60;3.10;;;22.80;99.90;;;;;;5127002;27;20797;-39
2021/08/21 11:30:10;;;;;;;2.83;2.63;;;22.90;99.90;;;;;;5125073;27;20568;-40
2021/08/21 11:32:44;;;;;;;4.73;2.87;;;22.90;99.90;;;;;;5122429;27;20685;-44
2021/08/21 11:35:23;;;;;;;4.23;2.73;;;23.00;99.90;;;;;;5121088;28;20413;-41
2021/08/21 11:37:55;;;;;;;2.80;2.60;;;23.10;99.90;;;;;;5122720;28;20408;-40
2021/08/21 11:40:23;;;;;;;2.90;2.70;;;23.20;99.90;;;;;;5126213;28;20440;-42
2021/08/21 11:42:54;;;;;;;2.20;2.10;;;23.20;99.90;;;;;;5126503;28;20427;-41
2021/08/21 11:45:21;;;;;;;3.10;2.90;;;23.30;99.90;;;;;;5126153;28;20421;-43
2021/08/21 11:47:51;;;;;;;2.70;2.50;;;23.30;99.90;;;;;;5121717;28;20444;-41
2021/08/21 11:50:32;;;;;;;2.67;2.47;;;23.30;99.90;;;;;;5118617;28;20448;-41
2021/08/21 11:53:06;;;;;;;2.87;2.50;;;23.40;99.90;;;;;;5119657;28;20458;-42
2021/08/21 11:55:35;;;;;;;3.33;2.30;;;23.40;99.90;;;;;;5126125;28;20483;-41
2021/08/21 11:58:01;;;;;;;2.70;2.50;;;23.40;99.90;;;;;;5126472;28;20409;-41
2021/08/21 12:00:30;;;;;;;2.50;2.30;;;23.50;99.90;;;;;;5125569;28;20917;-40
2021/08/21 12:03:00;;;;;;;4.87;3.17;;;23.50;99.90;;;;;;5122106;28;20432;-41
2021/08/21 12:05:27;;;;;;;4.03;3.73;;;23.60;99.90;;;;;;5116301;28;20473;-41
2021/08/21 12:07:53;;;;;;;3.43;3.13;;;23.50;99.90;;;;;;5124730;28;20432;-42
2021/08/21 12:10:19;;;;;;;2.53;2.33;;;23.50;99.90;;;;;;5125355;28;20477;-40
2021/08/21 12:12:52;;;;;;;2.60;2.40;;;23.60;99.90;;;;;;5126267;28;20890;-40
2021/08/21 12:15:18;;;;;;;5.53;3.03;;;23.60;99.90;;;;;;5107350;28;20417;-41
2021/08/21 12:17:44;;;;;;;3.50;3.10;;;23.60;99.90;;;;;;5105310;28;20667;-45
2021/08/21 12:20:10;;;;;;;3.10;2.90;;;23.60;99.90;;;;;;5115579;28;20448;-41
2021/08/21 12:22:36;;;;;;;3.57;3.27;;;23.60;99.90;;;;;;5126040;28;20427;-41
2021/08/21 12:25:02;;;;;;;2.80;2.60;;;23.60;99.90;;;;;;5125961;28;20433;-40
2021/08/21 12:27:28;;;;;;;4.23;2.50;;;23.60;99.90;;;;;;5125970;28;20298;-43
2021/08/21 12:30:14;;;;;;;3.20;2.90;;;23.60;99.90;;;;;;5125842;28;20605;-44
2021/08/21 12:32:40;;;;;;;2.90;2.60;;;23.60;99.90;;;;;;5125689;28;20517;-41
2021/08/21 12:35:33;;;;;;;3.17;2.93;;;23.60;99.90;;;;;;5115774;28;20469;-40
2021/08/21 12:38:04;;;;;;;3.10;2.90;;;23.70;99.90;;;;;;5122839;28;20397;-44
2021/08/21 12:40:30;;;;;;;3.50;3.20;;;23.80;99.90;;;;;;5125871;27;20449;-40
2021/08/21 12:43:04;;;;;;;2.90;2.70;;;23.80;99.90;;;;;;5110926;27;20817;-41